createdAt,value
2017-07-15T00:02:02.844Z,92.50
2017-07-15T00:06:50.240Z,92.70
2017-07-15T00:11:36.886Z,92.40
2017-07-15T00:16:23.564Z,92.20
2017-07-15T00:21:10.622Z,92.60
2017-07-15T00:25:57.337Z,92.60
2017-07-15T00:30:44.030Z,92.20
2017-07-15T00:35:30.754Z,92.30
2017-07-15T00:40:17.525Z,92.60
2017-07-15T00:45:04.545Z,91.70
2017-07-15T00:49:51.187Z,92.10
2017-07-15T00:54:38.692Z,92.90
2017-07-15T00:59:25.461Z,92.90
2017-07-15T01:04:12.249Z,92.10
2017-07-15T01:08:59.385Z,91.70
2017-07-15T01:13:46.028Z,91.70
2017-07-15T01:18:33.597Z,92.60
2017-07-15T01:23:20.247Z,92.60
2017-07-15T01:28:06.899Z,92.60
2017-07-15T01:32:54.301Z,92.40
2017-07-15T01:37:41.352Z,92.40
2017-07-15T01:42:27.972Z,92.60
2017-07-15T01:47:14.640Z,92.30
2017-07-15T01:52:01.325Z,92.10
2017-07-15T01:56:48.954Z,92.20
2017-07-15T02:01:35.989Z,91.90
2017-07-15T02:06:22.680Z,92.70
2017-07-15T02:11:09.334Z,92.80
2017-07-15T02:15:56.026Z,93.20
2017-07-15T02:20:42.700Z,92.90
2017-07-15T02:25:29.694Z,92.80
2017-07-15T02:30:16.316Z,93.20
2017-07-15T02:35:03.098Z,93.60
2017-07-15T02:39:49.749Z,93.20
2017-07-15T02:44:36.428Z,93.40
2017-07-15T02:49:23.131Z,93.40
2017-07-15T02:54:17.757Z,93.50
2017-07-15T02:59:04.408Z,93.50
2017-07-15T03:03:51.065Z,94.00
2017-07-15T03:08:38.590Z,93.40
2017-07-15T03:13:25.304Z,93.40
2017-07-15T03:18:12.236Z,93.10
2017-07-15T03:22:58.886Z,93.20
2017-07-15T03:27:46.324Z,93.20
2017-07-15T03:32:32.991Z,93.20
2017-07-15T03:37:19.656Z,93.10
2017-07-15T03:42:07.045Z,93.70
2017-07-15T03:46:53.996Z,93.40
2017-07-15T03:51:40.622Z,93.50
2017-07-15T03:56:27.309Z,94.00
2017-07-15T04:01:14.051Z,93.60
2017-07-15T04:06:00.731Z,93.80
2017-07-15T04:10:47.726Z,94.10
2017-07-15T04:15:34.381Z,93.80
2017-07-15T04:20:21.016Z,93.70
2017-07-15T04:25:07.701Z,93.90
2017-07-15T04:29:55.198Z,94.00
2017-07-15T04:34:41.814Z,93.90
2017-07-15T04:39:28.765Z,93.80
2017-07-15T04:44:15.452Z,93.90
2017-07-15T04:49:02.164Z,93.80
2017-07-15T04:53:48.884Z,93.80
2017-07-15T04:58:35.650Z,93.60
2017-07-15T05:03:22.638Z,93.70
2017-07-15T05:08:09.272Z,93.80
2017-07-15T05:12:56.083Z,93.70
2017-07-15T05:17:49.838Z,93.90
2017-07-15T05:22:37.242Z,93.60
2017-07-15T05:27:24.214Z,93.60
2017-07-15T05:32:10.955Z,93.50
2017-07-15T05:36:57.757Z,93.80
2017-07-15T05:41:45.256Z,93.50
2017-07-15T05:46:32.110Z,93.50
2017-07-15T05:51:19.595Z,93.00
2017-07-15T05:56:06.549Z,93.00
2017-07-15T06:00:53.326Z,93.50
2017-07-15T06:05:39.959Z,93.40
2017-07-15T06:10:26.607Z,92.80
2017-07-15T06:15:13.542Z,92.80
2017-07-15T06:20:00.167Z,92.50
2017-07-15T06:24:46.828Z,92.80
2017-07-15T06:29:33.465Z,91.80
2017-07-15T06:34:20.617Z,91.40
2017-07-15T06:39:07.287Z,91.20
2017-07-15T06:43:54.644Z,90.30
2017-07-15T06:48:41.366Z,90.00
2017-07-15T06:53:28.092Z,89.60
2017-07-15T06:58:14.788Z,88.60
2017-07-15T07:03:02.482Z,86.50
2017-07-15T07:07:49.127Z,86.40
2017-07-15T07:12:35.740Z,87.00
2017-07-15T07:17:22.372Z,85.80
2017-07-15T07:22:09.026Z,85.00
2017-07-15T07:26:55.711Z,84.10
2017-07-15T07:31:42.318Z,77.20
2017-07-15T07:36:28.980Z,79.40
2017-07-15T07:41:15.660Z,75.60
2017-07-15T07:46:02.595Z,73.90
2017-07-15T07:50:49.260Z,75.90
2017-07-15T07:55:36.003Z,72.80
2017-07-15T08:00:22.627Z,74.10
2017-07-15T08:05:09.306Z,70.70
2017-07-15T08:09:56.675Z,67.10
2017-07-15T08:14:43.645Z,67.20
2017-07-15T08:19:30.323Z,67.30
2017-07-15T08:24:16.939Z,67.50
2017-07-15T08:29:03.671Z,65.50
2017-07-15T08:33:50.330Z,66.30
2017-07-15T08:38:37.021Z,69.90
2017-07-15T08:43:23.924Z,67.70
2017-07-15T08:48:10.531Z,64.60
2017-07-15T08:52:57.198Z,65.50
2017-07-15T08:57:43.842Z,62.90
2017-07-15T09:02:30.588Z,61.80
2017-07-15T09:07:17.679Z,59.40
2017-07-15T09:12:04.322Z,60.20
2017-07-15T09:16:51.028Z,57.20
2017-07-15T09:21:37.659Z,58.10
2017-07-15T09:26:24.304Z,59.40
2017-07-15T09:31:11.690Z,59.60
2017-07-15T09:35:58.647Z,59.70
2017-07-15T09:40:46.044Z,54.20
2017-07-15T09:45:32.717Z,54.20
2017-07-15T09:50:20.124Z,55.00
2017-07-15T09:55:06.756Z,54.80
2017-07-15T09:59:53.884Z,54.70
2017-07-15T10:04:40.503Z,59.10
2017-07-15T10:09:27.232Z,60.00
2017-07-15T10:14:13.858Z,57.00
2017-07-15T10:19:00.458Z,55.50
2017-07-15T10:23:47.114Z,57.10
2017-07-15T10:28:34.468Z,59.70
2017-07-15T10:33:21.079Z,59.60
2017-07-15T10:38:08.459Z,59.30
2017-07-15T10:42:55.153Z,59.30
2017-07-15T10:47:42.005Z,55.20
2017-07-15T10:52:28.638Z,57.00
2017-07-15T10:57:15.355Z,60.00
2017-07-15T11:02:01.964Z,61.10
2017-07-15T11:06:48.930Z,62.40
2017-07-15T11:11:35.595Z,60.30
2017-07-15T11:16:22.345Z,57.50
2017-07-15T11:21:09.061Z,58.60
2017-07-15T11:25:56.109Z,59.30
2017-07-15T11:30:49.757Z,56.70
2017-07-15T11:35:36.462Z,59.10
2017-07-15T11:40:23.120Z,58.40
2017-07-15T11:45:09.773Z,57.90
2017-07-15T11:49:57.100Z,55.30
2017-07-15T11:54:43.707Z,55.20
2017-07-15T11:59:30.362Z,55.70
2017-07-15T12:04:18.124Z,59.30
2017-07-15T12:09:04.829Z,59.30
2017-07-15T12:13:52.251Z,60.20
2017-07-15T12:18:38.902Z,59.50
2017-07-15T12:23:25.593Z,59.10
2017-07-15T12:28:12.521Z,60.10
2017-07-15T12:32:59.152Z,58.60
2017-07-15T12:37:46.616Z,51.70
2017-07-15T12:42:33.377Z,52.00
2017-07-15T12:47:20.106Z,52.90
2017-07-15T12:52:07.167Z,53.60
2017-07-15T12:56:54.554Z,56.30
2017-07-15T13:01:41.234Z,55.70
2017-07-15T13:06:28.673Z,53.20
2017-07-15T13:11:15.328Z,53.10
2017-07-15T13:16:02.752Z,53.70
2017-07-15T13:20:49.373Z,49.40
2017-07-15T13:25:35.967Z,49.20
2017-07-15T13:30:23.347Z,47.70
2017-07-15T13:35:10.422Z,47.70
2017-07-15T13:39:57.132Z,47.60
2017-07-15T13:44:43.896Z,48.50
2017-07-15T13:49:30.516Z,51.30
2017-07-15T13:54:17.299Z,50.70
2017-07-15T13:59:03.928Z,49.80
2017-07-15T14:03:50.530Z,51.10
2017-07-15T14:08:37.137Z,50.20
2017-07-15T14:13:23.757Z,51.60
2017-07-15T14:18:10.405Z,51.50
2017-07-15T14:22:57.044Z,56.50
2017-07-15T14:27:44.429Z,57.00
2017-07-15T14:32:31.064Z,57.00
2017-07-15T14:37:17.909Z,58.10
2017-07-15T14:42:04.637Z,59.40
2017-07-15T14:46:52.359Z,57.00
2017-07-15T14:51:38.976Z,57.00
2017-07-15T14:56:25.600Z,57.50
2017-07-15T15:01:12.310Z,52.50
2017-07-15T15:05:58.953Z,51.30
2017-07-15T15:10:45.564Z,51.60
2017-07-15T15:15:32.489Z,52.70
2017-07-15T15:20:19.118Z,53.40
2017-07-15T15:25:06.030Z,55.40
2017-07-15T15:29:52.669Z,54.60
2017-07-15T15:34:39.391Z,55.20
2017-07-15T15:39:26.041Z,55.10
2017-07-15T15:44:13.027Z,56.00
2017-07-15T15:48:59.687Z,56.00
2017-07-15T15:53:46.444Z,56.10
2017-07-15T15:58:33.124Z,57.80
2017-07-15T16:03:20.492Z,54.60
2017-07-15T16:08:07.457Z,54.50
2017-07-15T16:12:54.109Z,54.40
2017-07-15T16:17:41.489Z,53.60
2017-07-15T16:22:28.107Z,53.50
2017-07-15T16:27:14.826Z,52.60
2017-07-15T16:32:02.047Z,53.50
2017-07-15T16:36:48.841Z,52.70
2017-07-15T16:41:36.287Z,52.80
2017-07-15T16:46:23.721Z,53.30
2017-07-15T16:51:11.095Z,54.20
2017-07-15T16:55:57.738Z,54.30
2017-07-15T17:00:44.652Z,57.50
2017-07-15T17:05:31.266Z,56.90
2017-07-15T17:10:17.983Z,56.00
2017-07-15T17:15:04.628Z,55.60
2017-07-15T17:19:51.335Z,52.80
2017-07-15T17:24:38.263Z,53.30
2017-07-15T17:29:24.883Z,53.00
2017-07-15T17:34:11.596Z,54.50
2017-07-15T17:38:58.220Z,54.80
2017-07-15T17:43:45.332Z,55.20
2017-07-15T17:48:31.980Z,55.10
2017-07-15T17:53:18.691Z,55.70
2017-07-15T17:58:05.397Z,56.90
2017-07-15T18:02:52.172Z,57.30
2017-07-15T18:07:39.104Z,59.00
2017-07-15T18:12:25.711Z,60.00
2017-07-15T18:17:12.339Z,59.70
2017-07-15T18:21:59.087Z,58.70
2017-07-15T18:26:45.738Z,58.90
2017-07-15T18:31:32.817Z,60.20
2017-07-15T18:36:19.412Z,63.50
2017-07-15T18:41:06.075Z,62.50
2017-07-15T18:45:53.447Z,66.40
2017-07-15T18:50:40.414Z,66.30
2017-07-15T18:55:27.113Z,67.90
2017-07-15T19:00:13.796Z,68.30
2017-07-15T19:05:00.789Z,69.80
2017-07-15T19:09:47.515Z,71.30
2017-07-15T19:14:34.949Z,75.40
2017-07-15T19:19:21.663Z,74.80
2017-07-15T19:24:08.686Z,75.90
2017-07-15T19:28:55.633Z,75.00
2017-07-15T19:33:42.285Z,76.00
2017-07-15T19:38:28.928Z,77.20
2017-07-15T19:43:15.614Z,76.50
2017-07-15T19:48:03.008Z,75.80
2017-07-15T19:52:49.654Z,75.80
2017-07-15T19:57:36.670Z,74.80
2017-07-15T20:02:23.349Z,75.00
2017-07-15T20:07:10.123Z,75.90
2017-07-15T20:11:56.833Z,74.60
2017-07-15T20:16:43.633Z,73.70
2017-07-15T20:21:30.313Z,76.10
2017-07-15T20:26:17.710Z,74.60
2017-07-15T20:31:04.421Z,74.50
2017-07-15T20:35:57.144Z,77.30
2017-07-15T20:40:43.802Z,78.40
2017-07-15T20:45:30.483Z,77.40
2017-07-15T20:50:17.178Z,77.50
2017-07-15T20:59:58.470Z,80.70
2017-07-15T21:04:45.185Z,81.00
2017-07-15T21:09:32.250Z,80.30
2017-07-15T21:14:18.903Z,80.50
2017-07-15T21:19:05.678Z,80.30
2017-07-15T21:23:52.448Z,79.80
2017-07-15T21:28:39.847Z,77.70
2017-07-15T21:33:26.566Z,77.70
2017-07-15T21:38:13.609Z,77.50
2017-07-15T21:43:00.485Z,79.60
2017-07-15T21:47:48.231Z,78.50
2017-07-15T21:52:35.134Z,77.60
2017-07-15T21:57:21.914Z,77.60
2017-07-15T22:02:08.541Z,76.80
2017-07-15T22:06:55.242Z,77.40
2017-07-15T22:11:42.194Z,77.90
2017-07-15T22:16:28.789Z,76.60
2017-07-15T22:21:15.433Z,75.30
2017-07-15T22:26:02.087Z,74.90
2017-07-15T22:30:49.445Z,78.20
2017-07-15T22:35:36.086Z,78.20
2017-07-15T22:40:22.765Z,78.00
2017-07-15T22:45:10.481Z,78.90
2017-07-15T22:50:22.523Z,78.90
2017-07-15T23:00:28.190Z,78.00
2017-07-15T23:05:15.348Z,78.00
2017-07-15T23:10:02.729Z,77.00
2017-07-15T23:14:49.346Z,77.00
2017-07-15T23:19:36.047Z,77.60
2017-07-15T23:24:22.707Z,78.50
2017-07-15T23:29:09.377Z,79.10
2017-07-15T23:33:56.369Z,79.00
2017-07-15T23:38:43.054Z,78.70
2017-07-15T23:43:29.704Z,78.90
2017-07-15T23:48:16.375Z,80.60
2017-07-15T23:53:03.080Z,80.00
2017-07-15T23:57:50.433Z,79.00
